Time;durP1;ratioP1;P1;durP2;ratioP2;P2;SDS_P1;SDS_P2;PMS_P1;PMS_P2;Temp;Humidity;BMP_temperature;BMP_pressure;BME280_temperature;BME280_humidity;BME280_pressure;Samples;Min_cycle;Max_cycle;Signal;HPM_P1;HPM_P2
2021/08/27 00:01:14;;;;;;;6.75;6.05;;;20.60;99.90;;;;;;5090337;28;20634;-80
2021/08/27 00:03:42;;;;;;;8.00;6.20;;;20.50;99.90;;;;;;5075639;28;20269;-80
2021/08/27 00:06:09;;;;;;;7.65;6.95;;;20.50;99.90;;;;;;5090112;28;20233;-81
2021/08/27 00:08:36;;;;;;;6.60;5.57;;;20.50;99.90;;;;;;5090614;28;20255;-81
2021/08/27 00:11:03;;;;;;;9.50;7.18;;;20.40;99.90;;;;;;5090411;28;20204;-80
2021/08/27 00:13:30;;;;;;;12.98;7.85;;;20.30;99.90;;;;;;5090081;28;20680;-81
2021/08/27 00:15:57;;;;;;;6.53;5.63;;;20.30;99.90;;;;;;5089862;28;20918;-81
2021/08/27 00:18:24;;;;;;;7.40;5.57;;;20.30;99.90;;;;;;5090053;28;20209;-81
2021/08/27 00:20:53;;;;;;;7.28;6.57;;;20.30;99.90;;;;;;5089347;28;20742;-81
2021/08/27 00:23:20;;;;;;;9.57;6.72;;;20.30;99.90;;;;;;5090466;28;20258;-80
2021/08/27 00:25:47;;;;;;;7.47;6.20;;;20.20;99.90;;;;;;5089311;28;20274;-81
2021/08/27 00:28:14;;;;;;;6.97;6.25;;;20.30;99.90;;;;;;5090396;28;20206;-80
2021/08/27 00:30:41;;;;;;;9.45;7.32;;;20.20;99.90;;;;;;5090712;28;20255;-80
2021/08/27 00:33:08;;;;;;;7.90;6.00;;;20.20;99.90;;;;;;5093710;28;20263;-81
2021/08/27 00:35:34;;;;;;;7.10;5.38;;;20.10;99.90;;;;;;5093926;28;20217;-81
2021/08/27 00:38:03;;;;;;;6.55;5.45;;;20.10;99.90;;;;;;5089485;28;20641;-81
2021/08/27 00:40:30;;;;;;;6.13;5.38;;;20.10;99.90;;;;;;5070329;28;20210;-80
2021/08/27 00:42:57;;;;;;;6.20;4.35;;;20.10;99.90;;;;;;5073005;28;20665;-81
2021/08/27 00:45:24;;;;;;;5.35;4.38;;;20.10;99.90;;;;;;5073140;28;20311;-80
2021/08/27 00:47:52;;;;;;;6.05;4.47;;;20.00;99.90;;;;;;5072698;28;20232;-81
2021/08/27 00:50:19;;;;;;;5.65;5.07;;;20.00;99.90;;;;;;5072953;28;20299;-81
2021/08/27 00:52:46;;;;;;;4.60;3.92;;;20.00;99.90;;;;;;5073075;28;20256;-80
2021/08/27 00:55:14;;;;;;;5.35;4.40;;;19.90;99.90;;;;;;5073312;28;20666;-80
2021/08/27 00:57:41;;;;;;;6.28;4.85;;;19.90;99.90;;;;;;5058975;28;20624;-80
2021/08/27 01:00:09;;;;;;;8.30;4.38;;;19.90;99.90;;;;;;5073183;28;20210;-80
2021/08/27 01:02:36;;;;;;;5.15;4.32;;;19.90;99.90;;;;;;5073120;28;20202;-80
2021/08/27 01:05:06;;;;;;;5.60;4.50;;;19.90;99.90;;;;;;5073222;28;20210;-80
2021/08/27 01:07:37;;;;;;;5.30;3.60;;;19.80;99.90;;;;;;5073074;28;20619;-81
2021/08/27 01:10:11;;;;;;;4.93;4.45;;;19.80;99.90;;;;;;5073154;28;20206;-81
2021/08/27 01:12:45;;;;;;;4.68;4.18;;;19.80;99.90;;;;;;5072660;28;20247;-80
2021/08/27 01:15:16;;;;;;;3.78;3.47;;;19.70;99.90;;;;;;5073108;28;20275;-81
2021/08/27 01:17:53;;;;;;;6.15;4.18;;;19.70;99.90;;;;;;5072087;28;20210;-80
2021/08/27 01:20:46;;;;;;;5.07;3.90;;;19.70;99.90;;;;;;5073038;28;20202;-81
2021/08/27 01:23:23;;;;;;;4.18;3.88;;;19.80;99.90;;;;;;5072571;28;20207;-80
2021/08/27 01:25:54;;;;;;;5.00;3.85;;;19.70;99.90;;;;;;5072431;28;20289;-80
2021/08/27 01:28:24;;;;;;;5.03;3.83;;;19.50;99.90;;;;;;5072596;28;20252;-80
2021/08/27 01:31:03;;;;;;;4.65;3.42;;;19.60;99.90;;;;;;5072575;28;20662;-81
2021/08/27 01:33:33;;;;;;;3.97;3.53;;;19.50;99.90;;;;;;5072404;28;20681;-81
2021/08/27 01:36:05;;;;;;;4.88;3.45;;;19.50;99.90;;;;;;5072087;28;21470;-80
2021/08/27 01:38:35;;;;;;;4.15;3.72;;;19.50;99.90;;;;;;5072166;28;20743;-80
2021/08/27 01:41:05;;;;;;;5.82;4.05;;;19.50;99.90;;;;;;5072111;28;20251;-81
2021/08/27 01:43:33;;;;;;;5.18;4.65;;;19.60;99.90;;;;;;5072441;28;20214;-80
2021/08/27 01:46:02;;;;;;;6.63;4.38;;;19.60;99.90;;;;;;5071983;28;20356;-81
2021/08/27 01:48:32;;;;;;;5.45;3.88;;;19.50;99.90;;;;;;5071793;28;20681;-80
2021/08/27 01:51:00;;;;;;;5.03;3.45;;;19.40;99.90;;;;;;5072174;28;20234;-80
2021/08/27 01:53:29;;;;;;;6.95;3.55;;;19.40;99.90;;;;;;5072246;28;20206;-80
2021/08/27 01:55:58;;;;;;;4.70;3.63;;;19.40;99.90;;;;;;5071765;28;20217;-80
2021/08/27 01:58:27;;;;;;;5.13;3.75;;;19.40;99.90;;;;;;5071836;28;20563;-80
2021/08/27 02:00:56;;;;;;;3.63;3.28;;;19.50;99.90;;;;;;5071491;28;20210;-80
2021/08/27 02:03:24;;;;;;;4.97;3.58;;;19.40;99.90;;;;;;5072159;28;20214;-80
2021/08/27 02:05:52;;;;;;;5.88;4.18;;;19.50;99.90;;;;;;5071292;28;20276;-81
2021/08/27 02:08:19;;;;;;;5.55;4.35;;;19.50;99.90;;;;;;5071983;28;20271;-80
2021/08/27 02:10:48;;;;;;;4.72;4.05;;;19.40;99.90;;;;;;5071341;28;20210;-81
2021/08/27 02:13:16;;;;;;;3.78;3.47;;;19.40;99.90;;;;;;5071544;28;20666;-80
2021/08/27 02:15:45;;;;;;;3.60;3.25;;;19.40;99.90;;;;;;5071096;28;20271;-80
2021/08/27 02:18:12;;;;;;;4.85;3.80;;;19.40;99.90;;;;;;5071700;28;20623;-81
2021/08/27 02:20:39;;;;;;;4.65;3.95;;;19.30;99.90;;;;;;5071205;28;20225;-81
2021/08/27 02:23:08;;;;;;;5.65;3.97;;;19.40;99.90;;;;;;5072011;28;20248;-80
2021/08/27 02:25:38;;;;;;;5.03;3.13;;;19.40;99.90;;;;;;5071685;28;20230;-80
2021/08/27 02:28:07;;;;;;;4.28;3.42;;;19.20;99.90;;;;;;5072180;28;20658;-80
2021/08/27 02:30:35;;;;;;;6.13;4.18;;;19.20;99.90;;;;;;5071735;28;20202;-80
2021/08/27 02:33:08;;;;;;;4.30;3.35;;;19.20;99.90;;;;;;5071178;28;20206;-80
2021/08/27 02:35:36;;;;;;;6.65;3.45;;;19.10;99.90;;;;;;5071568;28;20256;-81
2021/08/27 02:38:04;;;;;;;4.03;3.70;;;19.10;99.90;;;;;;5071089;28;20202;-80
2021/08/27 02:40:31;;;;;;;6.40;3.55;;;19.10;99.90;;;;;;5071421;28;20214;-80
2021/08/27 02:42:58;;;;;;;5.35;3.75;;;19.20;99.90;;;;;;5070539;28;20203;-80
2021/08/27 02:45:27;;;;;;;4.85;3.85;;;19.10;99.90;;;;;;5070779;28;20218;-80
2021/08/27 02:47:54;;;;;;;3.45;3.13;;;19.00;99.90;;;;;;5070913;28;20259;-81
2021/08/27 02:50:21;;;;;;;4.70;3.78;;;19.00;99.90;;;;;;5075097;28;20206;-80
2021/08/27 02:52:55;;;;;;;4.57;3.90;;;19.10;99.90;;;;;;5080450;28;20214;-80
2021/08/27 02:55:26;;;;;;;5.95;3.22;;;19.10;99.90;;;;;;5070881;28;20272;-81
2021/08/27 02:58:00;;;;;;;3.38;3.05;;;19.00;99.90;;;;;;5070732;28;20243;-81
2021/08/27 03:00:33;;;;;;;4.40;2.95;;;19.00;99.90;;;;;;5070727;28;20202;-81
2021/08/27 03:03:02;;;;;;;3.88;3.53;;;19.00;99.90;;;;;;5070556;28;20210;-80
2021/08/27 03:05:35;;;;;;;5.20;2.85;;;18.80;99.90;;;;;;5070680;28;20214;-80
2021/08/27 03:08:06;;;;;;;5.00;2.90;;;18.80;99.90;;;;;;5070696;28;20659;-81
2021/08/27 03:10:45;;;;;;;4.32;3.92;;;18.90;99.90;;;;;;5070980;28;20665;-81
2021/08/27 03:13:17;;;;;;;4.28;3.22;;;18.90;99.90;;;;;;5070635;28;20206;-80
2021/08/27 03:15:50;;;;;;;3.17;2.88;;;18.90;99.90;;;;;;5070268;28;20198;-80
2021/08/27 03:18:20;;;;;;;4.15;3.38;;;18.80;99.90;;;;;;5070845;28;20248;-81
2021/08/27 03:20:55;;;;;;;3.85;3.03;;;18.70;99.90;;;;;;5070005;28;20261;-80
2021/08/27 03:23:22;;;;;;;3.55;3.20;;;18.80;99.90;;;;;;5070739;28;20205;-80
2021/08/27 03:25:51;;;;;;;3.72;3.42;;;18.70;99.90;;;;;;5069841;28;20213;-81
2021/08/27 03:28:22;;;;;;;4.00;3.33;;;18.70;99.90;;;;;;5070171;28;20655;-80
2021/08/27 03:30:53;;;;;;;4.30;3.63;;;18.70;99.90;;;;;;5070166;28;20256;-81
2021/08/27 03:33:21;;;;;;;4.10;3.70;;;18.70;99.90;;;;;;5070920;28;20202;-81
2021/08/27 03:35:50;;;;;;;3.88;3.03;;;18.80;99.90;;;;;;5069900;28;20214;-81
2021/08/27 03:38:18;;;;;;;4.15;3.75;;;18.70;99.90;;;;;;5070649;28;20248;-81
2021/08/27 03:40:46;;;;;;;5.05;3.53;;;18.70;99.90;;;;;;5070030;28;20256;-81
2021/08/27 03:43:14;;;;;;;3.47;3.05;;;18.70;99.90;;;;;;5069721;28;20673;-81
2021/08/27 03:45:42;;;;;;;4.35;3.78;;;18.60;99.90;;;;;;5070139;28;20217;-81
2021/08/27 03:48:10;;;;;;;4.35;3.75;;;18.60;99.90;;;;;;5070362;28;20233;-81
2021/08/27 03:50:38;;;;;;;4.03;3.63;;;18.60;99.90;;;;;;5056559;28;20255;-81
2021/08/27 03:53:07;;;;;;;4.60;4.15;;;18.40;99.90;;;;;;5070717;28;20203;-81
2021/08/27 03:55:35;;;;;;;7.57;3.90;;;18.40;99.90;;;;;;5070466;28;20206;-80
2021/08/27 03:58:03;;;;;;;4.30;3.22;;;18.50;99.90;;;;;;5070006;28;20218;-80
2021/08/27 04:00:30;;;;;;;4.25;3.70;;;18.50;99.90;;;;;;5070161;28;20264;-81
2021/08/27 04:02:58;;;;;;;4.68;3.88;;;18.60;99.90;;;;;;5069825;28;20718;-81
2021/08/27 04:05:27;;;;;;;4.13;3.72;;;18.60;99.90;;;;;;5070555;28;20237;-81
2021/08/27 04:07:54;;;;;;;5.15;4.65;;;18.60;99.90;;;;;;5073662;28;20234;-81
2021/08/27 04:10:22;;;;;;;5.25;3.75;;;18.60;99.90;;;;;;5074248;28;20209;-81
2021/08/27 04:12:49;;;;;;;5.13;4.63;;;18.40;99.90;;;;;;5073514;28;20202;-81
2021/08/27 04:15:18;;;;;;;4.95;4.55;;;18.40;99.90;;;;;;5073981;28;20209;-80
2021/08/27 04:17:45;;;;;;;4.93;4.43;;;18.30;99.90;;;;;;5073550;28;20202;-81
2021/08/27 04:20:14;;;;;;;4.28;3.88;;;18.50;99.90;;;;;;5074250;28;20215;-80
2021/08/27 04:22:42;;;;;;;7.65;4.40;;;18.60;99.90;;;;;;5073519;28;20214;-80
2021/08/27 04:25:10;;;;;;;4.20;3.58;;;18.60;99.90;;;;;;5073807;28;20214;-81
2021/08/27 04:27:37;;;;;;;4.75;4.18;;;18.50;99.90;;;;;;5073624;28;20299;-80
2021/08/27 04:30:05;;;;;;;5.03;4.32;;;18.50;99.90;;;;;;5074376;28;20206;-81
2021/08/27 04:32:32;;;;;;;4.85;3.85;;;18.40;99.90;;;;;;5073647;28;20222;-81
2021/08/27 04:34:59;;;;;;;7.18;4.60;;;18.30;99.90;;;;;;5073310;28;20472;-81
2021/08/27 04:37:26;;;;;;;5.35;4.85;;;18.40;99.90;;;;;;5073921;28;20209;-80
2021/08/27 04:39:54;;;;;;;5.15;4.68;;;18.50;99.90;;;;;;5073223;28;20628;-82
2021/08/27 04:42:21;;;;;;;5.20;4.80;;;18.40;99.90;;;;;;5073409;28;20689;-81
2021/08/27 04:44:48;;;;;;;5.78;4.20;;;18.30;99.90;;;;;;5073016;28;20727;-80
2021/08/27 04:47:15;;;;;;;5.00;4.55;;;18.40;99.90;;;;;;5073517;28;20302;-80
2021/08/27 04:49:42;;;;;;;5.80;5.18;;;18.50;99.90;;;;;;5073274;28;20206;-80
2021/08/27 04:52:09;;;;;;;6.38;4.50;;;18.40;99.90;;;;;;5073208;28;20623;-81
2021/08/27 04:54:37;;;;;;;5.68;4.80;;;18.40;99.90;;;;;;5073804;28;20253;-80
2021/08/27 04:57:05;;;;;;;4.43;3.88;;;18.40;99.90;;;;;;5073062;28;20248;-80
2021/08/27 04:59:32;;;;;;;5.05;4.53;;;18.40;99.90;;;;;;5073445;28;20210;-81
2021/08/27 05:02:00;;;;;;;4.32;3.92;;;18.50;99.90;;;;;;5072337;28;20259;-81
2021/08/27 05:04:27;;;;;;;6.03;5.43;;;18.40;99.90;;;;;;5073310;28;20690;-81
2021/08/27 05:06:54;;;;;;;4.78;4.28;;;18.40;99.90;;;;;;5072569;28;20790;-81
2021/08/27 05:09:22;;;;;;;5.75;4.78;;;18.30;99.90;;;;;;5073091;28;20228;-81
2021/08/27 05:11:49;;;;;;;6.63;4.70;;;18.20;99.90;;;;;;5072767;28;20209;-80
2021/08/27 05:14:17;;;;;;;5.43;4.93;;;18.10;99.90;;;;;;5072691;28;20256;-81
2021/08/27 05:16:44;;;;;;;5.47;4.70;;;18.10;99.90;;;;;;5071857;28;20737;-81
2021/08/27 05:19:11;;;;;;;6.25;5.03;;;18.10;99.90;;;;;;5072777;28;20198;-81
2021/08/27 05:21:38;;;;;;;5.57;4.55;;;18.10;99.90;;;;;;5073338;28;20202;-80
2021/08/27 05:24:06;;;;;;;6.03;5.43;;;18.30;99.90;;;;;;5072686;28;20260;-80
2021/08/27 05:26:33;;;;;;;7.45;5.07;;;18.20;99.90;;;;;;5072921;28;20229;-80
2021/08/27 05:29:01;;;;;;;5.43;4.93;;;18.30;99.90;;;;;;5058263;28;20261;-80
2021/08/27 05:31:30;;;;;;;5.32;4.50;;;18.30;99.90;;;;;;5072703;28;20218;-81
2021/08/27 05:33:59;;;;;;;5.15;4.65;;;18.40;99.90;;;;;;5072502;28;20680;-81
2021/08/27 05:36:26;;;;;;;5.82;4.38;;;18.40;99.90;;;;;;5072441;28;20217;-80
2021/08/27 05:38:53;;;;;;;4.72;4.32;;;18.40;99.90;;;;;;5071897;28;20210;-81
2021/08/27 05:41:20;;;;;;;5.20;4.68;;;18.40;99.90;;;;;;5072538;28;20206;-81
2021/08/27 05:43:47;;;;;;;7.55;5.68;;;18.60;99.90;;;;;;5071716;28;20210;-81
2021/08/27 05:46:14;;;;;;;5.68;5.07;;;18.50;99.90;;;;;;5072381;28;20259;-81
2021/08/27 05:48:43;;;;;;;6.82;5.82;;;18.50;99.90;;;;;;5071512;28;20230;-81
2021/08/27 05:51:10;;;;;;;6.57;4.55;;;18.60;99.90;;;;;;5072318;28;20324;-81
2021/08/27 05:53:37;;;;;;;5.65;5.15;;;18.60;99.90;;;;;;5071869;28;20268;-81
2021/08/27 05:56:04;;;;;;;5.53;5.03;;;18.60;99.90;;;;;;5072531;28;20293;-81
2021/08/27 05:58:31;;;;;;;6.00;5.40;;;18.60;99.90;;;;;;5072173;28;20267;-81
2021/08/27 06:00:58;;;;;;;7.00;5.28;;;18.70;99.90;;;;;;5071966;28;20210;-81
2021/08/27 06:03:25;;;;;;;5.82;4.82;;;18.70;99.90;;;;;;5072072;28;20210;-81
2021/08/27 06:05:54;;;;;;;8.07;5.40;;;18.60;99.90;;;;;;5071502;28;20252;-81
2021/08/27 06:08:21;;;;;;;5.95;4.97;;;18.70;99.90;;;;;;5071631;28;20649;-82
2021/08/27 06:10:47;;;;;;;7.13;6.25;;;18.70;99.90;;;;;;5071108;28;20206;-81
2021/08/27 06:13:14;;;;;;;7.43;4.65;;;18.60;99.90;;;;;;5072189;28;20233;-81
2021/08/27 06:15:43;;;;;;;8.73;5.05;;;18.70;99.90;;;;;;5071129;28;20206;-81
2021/08/27 06:18:10;;;;;;;6.20;5.60;;;18.80;99.90;;;;;;5071742;28;20202;-81
2021/08/27 06:20:37;;;;;;;6.00;5.50;;;18.80;99.90;;;;;;5071589;28;20293;-81
2021/08/27 06:23:06;;;;;;;7.05;5.25;;;18.80;99.90;;;;;;5071756;28;20210;-81
2021/08/27 06:25:35;;;;;;;6.47;4.85;;;18.80;99.90;;;;;;5071966;28;20218;-81
2021/08/27 06:28:02;;;;;;;5.72;4.88;;;18.90;99.90;;;;;;5071095;28;20226;-81
2021/08/27 06:30:29;;;;;;;7.40;4.60;;;19.00;99.90;;;;;;5071799;28;20206;-81
2021/08/27 06:32:56;;;;;;;10.48;5.07;;;19.00;99.90;;;;;;5070808;28;20619;-81
2021/08/27 06:35:23;;;;;;;7.57;5.82;;;19.10;99.90;;;;;;5071365;28;20263;-81
2021/08/27 06:40:36;;;;;;;7.72;5.38;;;19.20;99.90;;;;;;5071744;28;20208;-81
2021/08/27 06:43:03;;;;;;;6.10;5.13;;;19.30;99.90;;;;;;5070852;28;20202;-81
2021/08/27 06:45:30;;;;;;;7.18;6.47;;;19.30;99.90;;;;;;5070995;28;20692;-82
2021/08/27 06:47:57;;;;;;;7.72;6.13;;;19.50;99.90;;;;;;5070751;28;20261;-81
2021/08/27 06:50:25;;;;;;;5.88;4.88;;;19.60;99.90;;;;;;5070845;28;20684;-81
2021/08/27 06:52:52;;;;;;;5.88;5.13;;;19.50;99.90;;;;;;5070493;28;20241;-82
2021/08/27 06:55:19;;;;;;;6.22;4.93;;;19.60;99.90;;;;;;5071031;28;20248;-81
2021/08/27 06:57:47;;;;;;;6.25;5.65;;;19.50;99.90;;;;;;5070880;28;20206;-81
2021/08/27 07:00:16;;;;;;;8.52;5.40;;;19.40;99.90;;;;;;5070969;28;20630;-81
2021/08/27 07:02:44;;;;;;;5.63;5.15;;;19.50;99.90;;;;;;5070569;28;20244;-81
2021/08/27 07:05:12;;;;;;;6.55;5.85;;;19.60;99.90;;;;;;5070765;28;20293;-81
2021/08/27 07:07:39;;;;;;;5.75;4.90;;;19.70;99.90;;;;;;5070949;28;20291;-81
2021/08/27 07:10:07;;;;;;;6.22;5.63;;;19.70;99.90;;;;;;5071319;28;20206;-81
2021/08/27 07:12:34;;;;;;;7.22;5.22;;;19.70;99.90;;;;;;5071076;28;20202;-81
2021/08/27 07:15:03;;;;;;;6.85;6.25;;;19.80;99.90;;;;;;5070203;28;20621;-81
2021/08/27 07:17:33;;;;;;;8.13;6.05;;;19.90;99.90;;;;;;5070318;28;20576;-81
2021/08/27 07:20:00;;;;;;;6.22;5.47;;;20.00;99.90;;;;;;5070149;28;20755;-81
2021/08/27 07:22:27;;;;;;;6.65;5.97;;;20.10;99.90;;;;;;5070396;28;20265;-82
2021/08/27 07:24:54;;;;;;;17.55;6.95;;;20.00;99.90;;;;;;5070188;28;20263;-81
2021/08/27 07:27:21;;;;;;;7.10;6.40;;;20.00;99.90;;;;;;5070368;28;20230;-81
2021/08/27 07:29:48;;;;;;;8.90;6.18;;;20.00;99.90;;;;;;5070217;28;20214;-81
2021/08/27 07:32:16;;;;;;;8.80;6.70;;;20.00;99.90;;;;;;5070786;28;20210;-81
2021/08/27 07:34:44;;;;;;;6.45;5.78;;;20.20;99.90;;;;;;5069770;28;20202;-81
2021/08/27 07:37:12;;;;;;;7.35;5.90;;;20.30;99.90;;;;;;5070492;28;20657;-81
2021/08/27 07:39:39;;;;;;;5.57;5.03;;;20.40;99.90;;;;;;5069723;28;20255;-81
2021/08/27 07:42:08;;;;;;;5.88;5.30;;;20.50;99.90;;;;;;5070770;28;20260;-81
2021/08/27 07:44:35;;;;;;;7.30;6.20;;;20.50;99.90;;;;;;5070108;28;20637;-81
2021/08/27 07:47:03;;;;;;;11.98;7.68;;;20.50;99.90;;;;;;5070244;28;20304;-80
2021/08/27 07:49:31;;;;;;;10.05;5.80;;;20.70;99.90;;;;;;5070365;28;20217;-81
2021/08/27 07:51:58;;;;;;;5.72;5.22;;;20.80;99.90;;;;;;5069560;28;20584;-80
2021/08/27 07:54:26;;;;;;;5.35;4.95;;;20.90;99.90;;;;;;5070519;28;20210;-81
2021/08/27 07:56:53;;;;;;;8.68;5.32;;;21.00;99.90;;;;;;5069577;28;20210;-81
2021/08/27 07:59:20;;;;;;;7.15;5.35;;;21.10;99.90;;;;;;5070542;28;20210;-81
2021/08/27 08:01:47;;;;;;;6.85;6.15;;;21.10;99.90;;;;;;5069534;28;20245;-80
2021/08/27 08:04:14;;;;;;;8.27;5.82;;;21.20;99.90;;;;;;5070235;28;20263;-81
2021/08/27 08:06:42;;;;;;;6.45;5.57;;;21.30;99.90;;;;;;5070114;28;20672;-81
2021/08/27 08:09:09;;;;;;;8.20;6.18;;;21.40;99.90;;;;;;5070011;28;20317;-80
2021/08/27 08:11:37;;;;;;;6.68;5.50;;;21.50;99.90;;;;;;5070339;28;20202;-81
2021/08/27 08:14:04;;;;;;;6.10;5.50;;;21.60;99.90;;;;;;5070043;28;20206;-81
2021/08/27 08:16:31;;;;;;;7.30;5.95;;;21.60;99.90;;;;;;5070087;28;20210;-81
2021/08/27 08:18:58;;;;;;;6.32;4.95;;;21.70;99.90;;;;;;5069499;28;20210;-81
2021/08/27 08:21:25;;;;;;;6.90;6.25;;;21.70;99.90;;;;;;5070017;28;20210;-82
2021/08/27 08:23:56;;;;;;;7.18;6.00;;;21.90;99.90;;;;;;5069569;28;20205;-81
2021/08/27 08:26:24;;;;;;;7.35;6.20;;;21.90;99.90;;;;;;5069820;28;20232;-81
2021/08/27 08:28:53;;;;;;;9.45;5.70;;;22.00;99.90;;;;;;5069720;28;20292;-81
2021/08/27 08:31:20;;;;;;;6.88;5.20;;;22.10;99.90;;;;;;5069944;28;20631;-81
2021/08/27 08:33:49;;;;;;;6.25;5.07;;;22.30;99.90;;;;;;5069304;28;20717;-81
2021/08/27 08:36:17;;;;;;;6.35;4.60;;;22.20;99.90;;;;;;5069759;28;20214;-81
2021/08/27 08:38:44;;;;;;;6.28;5.78;;;22.40;99.90;;;;;;5069306;28;20210;-80
2021/08/27 08:41:14;;;;;;;9.30;5.38;;;22.50;99.90;;;;;;5069896;28;20202;-82
2021/08/27 08:43:41;;;;;;;5.75;4.93;;;22.50;99.90;;;;;;5069637;28;20639;-81
2021/08/27 08:46:09;;;;;;;6.00;5.45;;;22.70;99.90;;;;;;5069677;28;20268;-81
2021/08/27 08:48:37;;;;;;;7.68;5.13;;;22.80;99.90;;;;;;5070039;28;20663;-82
2021/08/27 08:51:06;;;;;;;6.10;5.30;;;22.70;99.90;;;;;;5069823;28;20214;-80
2021/08/27 08:53:35;;;;;;;6.13;5.53;;;22.80;99.90;;;;;;5073575;28;20293;-81
2021/08/27 08:56:03;;;;;;;5.10;4.60;;;22.90;99.90;;;;;;5073499;28;20268;-81
2021/08/27 08:58:32;;;;;;;5.55;5.03;;;23.00;99.90;;;;;;5073282;28;20210;-81
2021/08/27 09:00:59;;;;;;;6.47;5.82;;;23.40;99.90;;;;;;5073053;28;20206;-81
2021/08/27 09:03:27;;;;;;;6.90;5.63;;;23.70;99.90;;;;;;5072840;28;20210;-80
2021/08/27 09:05:54;;;;;;;5.63;4.70;;;23.60;99.90;;;;;;5058958;28;20206;-80
2021/08/27 09:08:37;;;;;;;7.15;4.85;;;23.80;99.90;;;;;;5073153;28;20242;-81
2021/08/27 09:11:14;;;;;;;6.18;5.57;;;24.00;99.90;;;;;;5073350;28;20685;-81
2021/08/27 09:13:44;;;;;;;5.75;5.13;;;24.50;99.90;;;;;;5072440;28;20292;-80
2021/08/27 09:16:11;;;;;;;6.88;5.40;;;24.70;99.90;;;;;;5072453;28;20590;-81
2021/08/27 09:18:40;;;;;;;6.00;5.00;;;24.60;99.90;;;;;;5073025;28;20673;-81
2021/08/27 09:21:26;;;;;;;6.07;4.70;;;24.90;99.90;;;;;;5072777;28;20214;-81
2021/08/27 09:24:16;;;;;;;5.03;4.63;;;25.00;99.90;;;;;;5072173;28;20216;-80
2021/08/27 09:26:45;;;;;;;6.20;4.43;;;25.30;99.90;;;;;;5072146;28;20679;-81
2021/08/27 09:29:35;;;;;;;5.18;4.68;;;25.20;99.90;;;;;;5072516;28;20284;-81
2021/08/27 09:32:17;;;;;;;5.55;4.72;;;25.60;99.90;;;;;;5072176;28;20214;-81
2021/08/27 09:34:44;;;;;;;5.38;4.95;;;27.00;99.90;;;;;;5072343;28;20210;-80
2021/08/27 09:37:11;;;;;;;6.20;4.88;;;28.80;99.90;;;;;;5072367;28;20264;-78
2021/08/27 09:39:38;;;;;;;6.25;4.55;;;30.50;99.90;;;;;;5072572;28;20214;-80
2021/08/27 09:42:05;;;;;;;5.85;5.35;;;32.40;99.90;;;;;;5073161;28;20237;-79
2021/08/27 09:44:34;;;;;;;4.90;4.22;;;32.80;99.90;;;;;;5072335;28;20228;-80
2021/08/27 09:47:07;;;;;;;6.93;4.88;;;33.00;99.90;;;;;;5071798;28;20205;-79
2021/08/27 09:49:36;;;;;;;7.43;4.68;;;33.60;99.90;;;;;;5072418;28;20229;-80
2021/08/27 09:52:06;;;;;;;7.55;5.15;;;35.40;99.90;;;;;;5071994;28;20202;-79
2021/08/27 09:54:35;;;;;;;4.68;4.15;;;35.20;99.90;;;;;;5072774;28;20201;-80
2021/08/27 09:57:04;;;;;;;4.97;4.47;;;31.90;99.90;;;;;;5068553;28;20661;-80
2021/08/27 09:59:34;;;;;;;7.45;5.55;;;29.30;99.90;;;;;;5061698;28;20202;-77
2021/08/27 10:02:02;;;;;;;7.05;5.15;;;27.60;99.90;;;;;;5071472;28;20243;-79
2021/08/27 10:04:29;;;;;;;5.78;5.28;;;28.80;99.90;;;;;;5072408;28;20293;-79
2021/08/27 10:06:57;;;;;;;7.05;4.95;;;30.20;99.90;;;;;;5071696;28;20202;-79
2021/08/27 10:09:24;;;;;;;7.18;4.65;;;30.70;99.90;;;;;;5071924;28;20777;-80
2021/08/27 10:11:57;;;;;;;7.00;5.35;;;29.60;99.90;;;;;;5071760;28;20263;-79
2021/08/27 10:14:25;;;;;;;6.60;5.20;;;28.30;99.90;;;;;;5071584;28;20688;-80
2021/08/27 10:16:56;;;;;;;5.10;4.60;;;28.60;99.90;;;;;;5071410;28;20210;-79
2021/08/27 10:19:24;;;;;;;6.13;5.03;;;30.10;99.90;;;;;;5071761;28;20222;-79
2021/08/27 10:21:52;;;;;;;5.55;4.30;;;33.40;99.90;;;;;;5071592;28;20267;-80
2021/08/27 10:24:19;;;;;;;5.03;4.18;;;36.20;99.90;;;;;;5071427;28;20209;-80
2021/08/27 10:26:46;;;;;;;6.15;4.90;;;36.80;99.90;;;;;;5071373;28;20201;-79
2021/08/27 10:29:13;;;;;;;7.78;4.75;;;36.80;99.90;;;;;;5070885;28;20278;-80
2021/08/27 10:31:44;;;;;;;5.63;5.10;;;35.90;99.90;;;;;;5071535;28;20262;-78
2021/08/27 10:34:13;;;;;;;5.55;5.05;;;30.50;99.90;;;;;;5071395;28;20739;-79
2021/08/27 10:36:45;;;;;;;7.13;4.97;;;28.40;99.90;;;;;;5071172;28;20259;-79
2021/08/27 10:39:31;;;;;;;4.85;4.35;;;27.70;99.90;;;;;;5071235;28;20202;-79
2021/08/27 10:41:58;;;;;;;5.75;5.13;;;27.20;99.90;;;;;;5060074;28;20673;-80
2021/08/27 10:44:45;;;;;;;5.45;4.95;;;27.40;99.90;;;;;;5070803;28;20217;-78
2021/08/27 10:47:12;;;;;;;5.07;4.57;;;27.20;99.90;;;;;;5070972;28;20202;-80
2021/08/27 10:50:00;;;;;;;6.78;5.07;;;27.00;99.90;;;;;;5070669;28;20318;-80
2021/08/27 10:52:36;;;;;;;6.75;5.30;;;26.90;99.90;;;;;;5066175;28;20270;-79
2021/08/27 10:55:15;;;;;;;5.70;5.18;;;27.40;99.90;;;;;;5076050;28;20209;-79
2021/08/27 10:57:49;;;;;;;5.60;5.10;;;27.30;99.90;;;;;;5070346;28;20645;-78
2021/08/27 11:00:34;;;;;;;5.93;5.05;;;27.30;99.90;;;;;;5070550;28;20624;-80
2021/08/27 11:03:01;;;;;;;8.15;5.60;;;27.60;99.90;;;;;;5070706;28;20327;-78
2021/08/27 11:05:38;;;;;;;6.10;5.32;;;27.50;99.90;;;;;;5070892;28;20210;-80
2021/08/27 11:08:07;;;;;;;5.80;5.40;;;27.30;99.90;;;;;;5071077;28;20600;-81
2021/08/27 11:10:36;;;;;;;5.93;5.20;;;27.30;99.90;;;;;;5070808;28;20218;-79
2021/08/27 11:13:09;;;;;;;5.75;5.25;;;26.60;99.90;;;;;;5070529;28;20294;-80
2021/08/27 11:15:36;;;;;;;9.43;5.20;;;26.30;99.90;;;;;;5070370;28;20217;-79
2021/08/27 11:18:20;;;;;;;6.53;4.40;;;26.40;99.90;;;;;;5070727;28;20198;-79
2021/08/27 11:20:49;;;;;;;5.95;5.28;;;26.10;99.90;;;;;;5070206;28;20208;-80
2021/08/27 11:23:17;;;;;;;8.13;5.20;;;26.30;99.90;;;;;;5070654;28;20206;-79
2021/08/27 11:25:58;;;;;;;4.90;4.50;;;26.50;99.90;;;;;;5069916;28;20751;-84
2021/08/27 11:28:26;;;;;;;5.30;4.78;;;26.80;99.90;;;;;;5070531;28;20265;-80
2021/08/27 11:31:04;;;;;;;5.63;5.05;;;27.10;99.90;;;;;;5070188;28;20236;-81
2021/08/27 11:33:52;;;;;;;6.05;5.20;;;27.40;99.90;;;;;;5070428;28;20610;-80
2021/08/27 11:36:22;;;;;;;5.85;5.25;;;27.70;99.90;;;;;;5070176;28;20741;-79
2021/08/27 11:38:54;;;;;;;7.50;5.22;;;27.60;99.90;;;;;;5070244;28;20218;-80
2021/08/27 11:41:23;;;;;;;6.75;5.15;;;27.70;99.90;;;;;;5070014;28;20256;-80
2021/08/27 11:44:12;;;;;;;5.88;4.78;;;27.70;99.90;;;;;;5069958;28;20214;-79
2021/08/27 11:46:46;;;;;;;6.82;4.50;;;27.80;99.90;;;;;;5069063;28;20293;-80
2021/08/27 11:49:36;;;;;;;6.97;4.47;;;27.50;99.90;;;;;;5070172;28;20226;-82
2021/08/27 11:52:16;;;;;;;5.65;4.45;;;27.30;99.90;;;;;;5070168;28;20252;-79
2021/08/27 11:54:43;;;;;;;5.80;4.70;;;26.70;99.90;;;;;;5069938;28;20560;-79
2021/08/27 11:57:20;;;;;;;6.18;3.92;;;26.60;99.90;;;;;;5070087;28;20621;-80
2021/08/27 11:59:48;;;;;;;6.30;4.45;;;26.70;99.90;;;;;;5069919;28;20288;-80
2021/08/27 12:02:17;;;;;;;5.10;4.70;;;26.60;99.90;;;;;;5070011;28;20256;-80
2021/08/27 12:04:44;;;;;;;6.10;5.47;;;26.80;99.90;;;;;;5069763;28;20619;-80
2021/08/27 12:07:14;;;;;;;5.57;4.95;;;27.50;99.90;;;;;;5069905;28;20213;-79
2021/08/27 12:09:42;;;;;;;5.03;4.53;;;28.00;99.90;;;;;;5069756;28;20280;-79
2021/08/27 12:12:31;;;;;;;4.82;4.43;;;28.00;99.90;;;;;;5070194;28;20206;-80
2021/08/27 12:14:58;;;;;;;6.60;4.85;;;27.40;99.90;;;;;;5069894;28;20249;-81
2021/08/27 12:17:26;;;;;;;5.30;4.40;;;27.10;99.90;;;;;;5069778;28;20218;-80
2021/08/27 12:19:55;;;;;;;5.45;4.93;;;27.00;99.90;;;;;;5070163;28;20622;-79
2021/08/27 12:22:25;;;;;;;4.78;4.20;;;26.80;99.90;;;;;;5070091;28;20260;-80
2021/08/27 12:24:54;;;;;;;4.18;3.78;;;26.70;99.90;;;;;;5069831;28;20214;-81
2021/08/27 12:27:22;;;;;;;5.30;4.60;;;26.90;99.90;;;;;;5071921;28;20208;-79
2021/08/27 12:30:08;;;;;;;5.15;4.60;;;26.80;99.90;;;;;;5073309;28;20233;-80
2021/08/27 12:32:36;;;;;;;5.88;5.28;;;26.70;99.90;;;;;;5073905;28;20787;-79
2021/08/27 12:35:04;;;;;;;5.40;4.88;;;26.60;99.90;;;;;;5073634;28;20719;-79
2021/08/27 12:37:33;;;;;;;5.43;4.93;;;26.30;99.90;;;;;;5073575;28;20678;-81
2021/08/27 12:40:01;;;;;;;5.20;4.18;;;26.00;99.90;;;;;;5073281;28;20283;-80
2021/08/27 12:42:27;;;;;;;5.32;4.80;;;26.00;99.90;;;;;;5073580;28;20589;-79
2021/08/27 12:45:03;;;;;;;4.90;4.43;;;26.40;99.90;;;;;;5072911;28;20642;-80
2021/08/27 12:47:33;;;;;;;5.53;4.45;;;26.40;99.90;;;;;;5073220;28;20247;-80
2021/08/27 12:50:02;;;;;;;5.15;4.65;;;26.40;99.90;;;;;;5072777;28;20233;-79
2021/08/27 12:52:30;;;;;;;4.95;4.50;;;26.30;99.90;;;;;;5073408;28;20731;-79
2021/08/27 12:54:58;;;;;;;7.55;4.53;;;26.30;99.90;;;;;;5072748;28;20250;-79
2021/08/27 12:57:26;;;;;;;6.93;4.28;;;25.90;99.90;;;;;;5073705;28;20206;-79
2021/08/27 12:59:58;;;;;;;5.30;4.72;;;25.80;99.90;;;;;;5073130;28;20210;-79